Time;durP1;ratioP1;P1;durP2;ratioP2;P2;SDS_P1;SDS_P2;PMS_P1;PMS_P2;Temp;Humidity;BMP_temperature;BMP_pressure;BME280_temperature;BME280_humidity;BME280_pressure;Samples;Min_cycle;Max_cycle;Signal;HPM_P1;HPM_P2
2023/03/24 00:01:47;;;;;;;4.57;2.83;;;;;;;17.04;50.19;96665.50;5043536;28;20021;-33
2023/03/24 00:04:13;;;;;;;6.95;2.70;;;;;;;17.08;50.04;96674.28;5043507;28;20039;-33
2023/03/24 00:06:38;;;;;;;3.20;2.70;;;;;;;17.06;50.24;96671.28;5042586;28;20058;-33
2023/03/24 00:09:05;;;;;;;3.40;2.67;;;;;;;17.04;50.48;96674.47;5043603;28;20021;-34
2023/03/24 00:11:33;;;;;;;5.75;2.80;;;;;;;16.90;50.32;96674.38;5043334;28;20025;-33
2023/03/24 00:13:59;;;;;;;4.97;2.72;;;;;;;16.85;50.21;96668.28;5043671;28;20053;-33
2023/03/24 00:16:25;;;;;;;3.83;2.70;;;;;;;16.86;50.27;96678.03;5037637;28;20038;-33
2023/03/24 00:18:54;;;;;;;3.03;2.45;;;;;;;17.05;49.78;96670.53;5040954;28;20420;-33
2023/03/24 00:21:20;;;;;;;3.97;2.80;;;;;;;17.01;49.69;96669.91;5045679;28;20032;-32
2023/03/24 00:23:48;;;;;;;5.18;2.42;;;;;;;17.01;49.99;96666.41;5032812;28;20057;-33
2023/03/24 00:26:15;;;;;;;5.35;2.75;;;;;;;17.16;49.44;96661.78;5033428;28;20021;-33
2023/03/24 00:28:44;;;;;;;5.28;2.65;;;;;;;16.95;50.09;96671.00;5046719;28;20032;-33
2023/03/24 00:31:13;;;;;;;8.20;2.85;;;;;;;16.99;49.86;96666.09;5034017;28;20419;-33
2023/03/24 00:33:40;;;;;;;4.30;2.60;;;;;;;16.93;50.09;96662.50;5046408;28;20028;-34
2023/03/24 00:36:10;;;;;;;4.00;2.90;;;;;;;16.99;50.08;96677.06;5051293;28;20445;-33
2023/03/24 00:38:37;;;;;;;5.60;2.75;;;;;;;16.95;49.91;96662.78;5044538;28;20067;-33
2023/03/24 00:41:06;;;;;;;4.80;3.10;;;;;;;16.93;50.06;96665.22;5036829;28;20030;-33
2023/03/24 00:43:32;;;;;;;5.75;2.38;;;;;;;17.05;49.77;96667.00;5050748;28;20026;-33
2023/03/24 00:46:00;;;;;;;3.30;2.70;;;;;;;16.83;50.53;96665.25;5047418;28;20036;-33
2023/03/24 00:48:27;;;;;;;3.55;2.75;;;;;;;16.79;50.33;96661.94;5050985;28;20049;-33
2023/03/24 00:50:53;;;;;;;3.80;2.53;;;;;;;16.67;50.42;96657.41;5041822;28;20155;-32
2023/03/24 00:53:22;;;;;;;3.75;2.38;;;;;;;16.75;49.99;96661.31;5038900;28;20104;-32
2023/03/24 00:55:48;;;;;;;4.30;2.80;;;;;;;16.71;49.98;96660.72;5044184;28;20017;-33
2023/03/24 00:58:18;;;;;;;5.05;2.70;;;;;;;17.07;49.26;96662.56;5041127;28;20036;-32
2023/03/24 01:04:05;;;;;;;5.88;2.60;;;;;;;16.76;49.92;96665.59;5036336;28;20389;-32
2023/03/24 01:06:31;;;;;;;5.40;2.55;;;;;;;16.96;49.51;96664.28;5043939;28;20018;-33
2023/03/24 01:08:57;;;;;;;5.65;2.92;;;;;;;16.91;49.51;96662.19;5044073;28;20355;-33
2023/03/24 01:11:25;;;;;;;3.60;2.60;;;;;;;16.79;50.12;96664.66;5043689;28;20466;-33
2023/03/24 01:13:53;;;;;;;3.55;2.42;;;;;;;17.00;50.04;96667.63;5043086;28;20026;-33
2023/03/24 01:16:19;;;;;;;4.95;2.90;;;;;;;16.97;50.00;96663.06;5035933;28;20048;-33
2023/03/24 01:18:44;;;;;;;7.70;2.83;;;;;;;16.82;50.33;96661.00;5043828;28;20030;-33
2023/03/24 01:21:11;;;;;;;3.75;2.47;;;;;;;16.85;50.15;96662.06;5039212;28;20107;-33
2023/03/24 01:23:38;;;;;;;3.45;2.45;;;;;;;16.83;50.27;96659.00;5046759;28;20029;-33
2023/03/24 01:26:09;;;;;;;6.97;2.85;;;;;;;16.75;50.53;96658.59;5037519;28;20032;-33
2023/03/24 01:28:39;;;;;;;3.83;2.45;;;;;;;16.82;50.44;96658.25;5046117;28;20020;-34
2023/03/24 01:31:07;;;;;;;5.72;2.67;;;;;;;16.94;49.97;96659.28;5037742;28;20171;-32
2023/03/24 01:33:33;;;;;;;5.03;3.10;;;;;;;16.98;50.03;96659.13;5046244;28;20029;-33
2023/03/24 01:36:00;;;;;;;4.68;2.53;;;;;;;16.86;50.20;96658.84;5038220;28;20089;-33
2023/03/24 01:38:25;;;;;;;4.97;2.80;;;;;;;16.79;50.28;96652.97;5043210;28;20155;-33
2023/03/24 01:40:52;;;;;;;4.03;2.80;;;;;;;16.66;50.43;96657.88;5043187;28;20052;-33
2023/03/24 01:43:25;;;;;;;6.72;2.90;;;;;;;16.76;50.15;96657.38;5043965;28;20029;-33
2023/03/24 01:45:57;;;;;;;5.53;2.58;;;;;;;16.79;50.17;96661.94;5039608;28;20025;-33
2023/03/24 01:48:25;;;;;;;5.78;3.03;;;;;;;16.76;50.39;96659.34;5041519;28;20052;-33
2023/03/24 01:51:06;;;;;;;5.40;2.80;;;;;;;16.79;50.82;96664.66;5042899;28;20024;-32
2023/03/24 01:53:35;;;;;;;6.30;2.70;;;;;;;16.77;50.92;96653.41;5044575;28;20354;-33
2023/03/24 01:56:02;;;;;;;4.35;2.50;;;;;;;16.80;50.80;96660.72;5040299;28;20024;-32
2023/03/24 01:58:31;;;;;;;6.03;2.80;;;;;;;16.85;50.98;96659.31;5042776;28;20025;-33
2023/03/24 02:00:56;;;;;;;4.32;2.83;;;;;;;16.74;51.40;96650.84;5042674;28;20021;-33
2023/03/24 02:03:24;;;;;;;4.50;2.85;;;;;;;16.70;51.31;96650.97;5042767;28;20048;-32
2023/03/24 02:05:53;;;;;;;3.72;2.78;;;;;;;16.63;51.73;96654.06;5042243;28;20023;-33
2023/03/24 02:08:49;;;;;;;5.68;3.17;;;;;;;16.70;51.44;96656.47;5041203;28;20103;-33
2023/03/24 02:11:15;;;;;;;5.78;3.15;;;;;;;16.65;51.80;96657.09;5042407;28;20028;-33
2023/03/24 02:13:40;;;;;;;5.95;3.67;;;;;;;16.55;52.03;96654.81;5042289;28;20029;-33
2023/03/24 02:16:23;;;;;;;8.18;3.90;;;;;;;16.40;52.49;96665.66;5042516;28;20030;-33
2023/03/24 02:19:36;;;;;;;6.18;3.63;;;;;;;16.40;52.63;96658.19;5043065;28;20075;-33
2023/03/24 02:22:30;;;;;;;6.87;3.90;;;;;;;16.48;52.46;96661.34;5051581;28;20439;-33
2023/03/24 02:25:56;;;;;;;6.07;3.72;;;;;;;16.66;52.41;96666.84;5051257;28;20029;-33
2023/03/24 02:28:47;;;;;;;6.00;4.50;;;;;;;16.48;52.69;96666.84;4967119;28;20026;-33
2023/03/24 02:31:24;;;;;;;5.80;4.10;;;;;;;16.48;52.83;96667.59;4972928;28;20038;-32
2023/03/24 02:34:27;;;;;;;6.15;4.45;;;;;;;16.53;53.01;96664.25;4973393;28;20171;-32
2023/03/24 02:37:11;;;;;;;5.70;4.60;;;;;;;16.30;54.33;96662.16;4973067;28;20038;-33
2023/03/24 02:40:00;;;;;;;6.65;3.90;;;;;;;16.36;54.83;96654.09;4970369;28;20030;-34
2023/03/24 02:43:00;;;;;;;6.32;4.35;;;;;;;16.21;55.73;96659.41;4973039;28;20029;-32
2023/03/24 02:45:38;;;;;;;5.57;4.40;;;;;;;16.23;55.80;96661.69;4972895;28;20031;-33
2023/03/24 02:48:15;;;;;;;5.10;4.10;;;;;;;16.23;55.42;96648.78;4972714;28;20184;-33
2023/03/24 02:50:53;;;;;;;5.90;4.00;;;;;;;16.08;55.96;96651.38;4973032;28;20027;-34
2023/03/24 02:53:43;;;;;;;4.55;3.80;;;;;;;16.19;55.51;96653.66;4972292;28;20140;-33
2023/03/24 02:56:15;;;;;;;5.43;4.13;;;;;;;16.24;55.04;96647.56;4979393;28;20352;-32
2023/03/24 02:59:05;;;;;;;4.03;3.33;;;;;;;16.19;55.40;96647.44;5016110;28;20049;-32
2023/03/24 03:01:52;;;;;;;4.20;3.53;;;;;;;16.15;55.63;96647.59;5041283;28;20025;-33
2023/03/24 03:04:24;;;;;;;6.88;3.40;;;;;;;16.01;55.75;96651.69;5048422;28;20017;-33
2023/03/24 03:06:57;;;;;;;4.45;3.15;;;;;;;15.89;56.15;96657.31;5043863;28;20024;-33
2023/03/24 03:09:25;;;;;;;3.90;3.15;;;;;;;16.07;56.11;96649.13;5044894;28;20119;-33
2023/03/24 03:11:54;;;;;;;3.83;3.15;;;;;;;15.90;56.39;96647.88;5034424;28;20385;-33
2023/03/24 03:14:27;;;;;;;4.65;3.22;;;;;;;16.19;56.10;96645.47;5046926;28;20044;-33
2023/03/24 03:17:17;;;;;;;4.68;3.67;;;;;;;16.05;56.73;96646.84;5041525;28;20029;-32
2023/03/24 03:19:51;;;;;;;4.55;3.38;;;;;;;16.01;56.92;96654.41;5041185;28;20090;-33
2023/03/24 03:22:22;;;;;;;4.45;3.55;;;;;;;15.99;57.25;96640.44;5034534;28;20032;-33
2023/03/24 03:24:51;;;;;;;5.45;3.83;;;;;;;16.00;57.34;96647.44;5041178;28;20025;-32
2023/03/24 03:27:26;;;;;;;4.65;3.80;;;;;;;16.02;57.51;96636.03;5040719;28;20113;-32
2023/03/24 03:30:08;;;;;;;4.75;3.47;;;;;;;15.86;57.74;96644.53;5040880;28;20028;-33
2023/03/24 03:32:39;;;;;;;4.03;3.35;;;;;;;16.03;57.23;96635.59;5039126;28;20047;-34
2023/03/24 03:35:32;;;;;;;4.28;3.58;;;;;;;15.79;58.01;96634.69;5035173;28;20032;-32
2023/03/24 03:38:15;;;;;;;3.80;3.38;;;;;;;15.97;57.76;96634.66;5040740;28;20030;-34
2023/03/24 03:40:48;;;;;;;3.80;3.20;;;;;;;15.87;58.00;96624.94;5040928;28;20097;-33
2023/03/24 03:43:14;;;;;;;3.80;3.40;;;;;;;16.03;57.53;96624.63;5040271;28;20100;-33
2023/03/24 03:45:40;;;;;;;4.40;3.28;;;;;;;16.10;57.37;96626.28;5039374;28;20422;-33
2023/03/24 03:48:05;;;;;;;3.08;2.78;;;;;;;15.90;57.90;96626.00;5040309;28;20050;-33
2023/03/24 03:50:32;;;;;;;3.58;2.80;;;;;;;15.86;57.77;96623.41;5041475;28;20491;-34
2023/03/24 03:52:57;;;;;;;3.50;2.70;;;;;;;15.78;58.08;96619.47;5040453;28;20458;-33
2023/03/24 03:55:23;;;;;;;3.47;2.70;;;;;;;15.79;58.01;96618.28;5034185;28;20079;-32
2023/03/24 03:57:49;;;;;;;3.45;2.97;;;;;;;15.97;57.53;96612.78;5043631;28;20025;-32
2023/03/24 04:00:18;;;;;;;4.13;3.20;;;;;;;15.92;58.01;96621.59;5043578;28;20100;-34
2023/03/24 04:03:13;;;;;;;4.18;3.00;;;;;;;16.00;58.14;96614.59;5035857;28;20025;-33
2023/03/24 04:05:47;;;;;;;4.32;3.45;;;;;;;15.92;58.19;96616.13;5041872;28;20025;-32
2023/03/24 04:08:20;;;;;;;4.28;3.30;;;;;;;15.73;58.61;96617.34;5038585;28;20469;-32
2023/03/24 04:10:46;;;;;;;;;;;;;;;15.83;58.59;96610.66;5041416;28;20037;-32
2023/03/24 04:13:25;;;;;;;3.63;3.03;;;;;;;15.79;58.76;96607.31;5037583;28;19961;-33
2023/03/24 04:15:59;;;;;;;4.07;3.20;;;;;;;15.75;58.49;96602.00;5034638;28;20289;-33
2023/03/24 04:18:37;;;;;;;4.05;3.00;;;;;;;15.91;58.28;96603.69;5043787;28;20414;-33
2023/03/24 04:21:07;;;;;;;3.78;2.78;;;;;;;15.79;58.58;96604.59;5040701;28;20063;-32
2023/03/24 04:23:53;;;;;;;2.90;2.40;;;;;;;15.78;58.49;96603.06;5040632;28;20033;-33
2023/03/24 04:26:34;;;;;;;3.03;2.72;;;;;;;15.90;58.13;96599.41;5037237;28;20528;-32
2023/03/24 04:29:12;;;;;;;2.42;2.10;;;;;;;15.72;58.55;96599.41;5041151;28;20410;-32
2023/03/24 04:31:48;;;;;;;2.83;2.45;;;;;;;15.79;58.11;96602.63;5039258;28;20025;-33
2023/03/24 04:34:34;;;;;;;3.42;2.63;;;;;;;15.94;57.75;96594.56;5035528;28;20045;-32
2023/03/24 04:37:11;;;;;;;2.78;2.47;;;;;;;15.95;57.71;96598.78;5042050;28;20026;-32
2023/03/24 04:39:40;;;;;;;3.15;2.47;;;;;;;15.85;58.21;96605.50;5040141;28;20372;-33
2023/03/24 04:42:12;;;;;;;3.50;2.55;;;;;;;15.89;58.24;96611.56;5044510;28;20021;-33
2023/03/24 04:44:40;;;;;;;3.42;2.72;;;;;;;15.96;57.95;96613.22;5037220;28;20024;-32
2023/03/24 04:47:07;;;;;;;4.47;3.00;;;;;;;15.88;58.26;96620.22;5035628;28;20022;-32
2023/03/24 04:49:42;;;;;;;3.60;2.90;;;;;;;15.75;58.40;96623.88;5042363;28;20053;-32
2023/03/24 04:52:08;;;;;;;3.13;2.50;;;;;;;15.78;58.37;96616.75;5043153;28;20033;-34
2023/03/24 04:54:33;;;;;;;3.13;2.45;;;;;;;15.77;58.37;96618.72;5034235;28;20579;-33
2023/03/24 04:57:00;;;;;;;2.83;2.53;;;;;;;15.88;58.18;96628.44;5043442;28;20427;-32
2023/03/24 04:59:27;;;;;;;2.95;2.40;;;;;;;15.92;57.94;96627.09;5042193;28;20032;-32
2023/03/24 05:01:53;;;;;;;2.45;2.17;;;;;;;15.80;57.85;96634.22;5043621;28;20111;-32
2023/03/24 05:04:22;;;;;;;2.90;2.20;;;;;;;15.84;58.06;96628.59;5043675;28;20095;-32
2023/03/24 05:06:50;;;;;;;3.35;2.50;;;;;;;15.86;57.40;96628.88;5042673;28;20064;-33
2023/03/24 05:09:20;;;;;;;3.95;1.92;;;;;;;15.70;58.25;96640.88;5043079;28;20112;-32
2023/03/24 05:11:47;;;;;;;2.25;2.00;;;;;;;15.75;57.70;96653.97;5040818;28;20033;-33
2023/03/24 05:14:13;;;;;;;2.70;2.30;;;;;;;15.54;57.91;96651.34;5037358;28;20017;-32
2023/03/24 05:16:39;;;;;;;2.90;2.35;;;;;;;15.70;57.52;96659.28;5041912;28;20021;-32
2023/03/24 05:19:04;;;;;;;3.80;2.30;;;;;;;15.62;57.48;96664.28;5042452;28;20043;-32
2023/03/24 05:21:30;;;;;;;3.67;2.47;;;;;;;15.63;56.90;96675.97;5046181;28;20025;-33
2023/03/24 05:23:56;;;;;;;6.25;3.80;;;;;;;15.68;56.98;96673.41;5037636;28;20037;-32
2023/03/24 05:26:21;;;;;;;5.55;4.03;;;;;;;15.79;56.88;96662.03;5049772;28;20021;-33
2023/03/24 05:28:46;;;;;;;6.75;4.40;;;;;;;15.61;57.13;96665.47;5042675;28;20021;-32
2023/03/24 05:31:12;;;;;;;7.53;4.53;;;;;;;15.82;56.70;96654.88;5042551;28;20025;-32
2023/03/24 05:33:37;;;;;;;7.53;4.75;;;;;;;15.79;56.92;96651.84;5042784;28;20068;-32
2023/03/24 05:36:03;;;;;;;6.38;4.75;;;;;;;15.62;57.41;96653.34;5050119;28;20017;-32
2023/03/24 05:38:29;;;;;;;5.68;4.65;;;;;;;15.56;57.79;96666.09;5042827;28;20104;-34
2023/03/24 05:40:59;;;;;;;6.35;4.90;;;;;;;15.68;57.30;96664.44;5036016;28;20064;-33
2023/03/24 05:43:24;;;;;;;8.48;4.70;;;;;;;15.75;57.08;96672.34;5038416;28;20377;-32
2023/03/24 05:45:50;;;;;;;6.05;4.40;;;;;;;15.80;56.34;96666.28;5046142;28;20009;-32
2023/03/24 05:48:15;;;;;;;4.82;3.80;;;;;;;15.61;56.75;96668.22;5044473;28;20460;-32
2023/03/24 05:50:41;;;;;;;5.18;4.07;;;;;;;15.72;56.42;96668.53;5039226;28;20024;-33
2023/03/24 05:53:06;;;;;;;6.35;3.85;;;;;;;15.59;56.53;96670.63;5039558;28;20478;-32
2023/03/24 05:55:32;;;;;;;5.40;3.83;;;;;;;15.76;55.95;96663.69;5042966;28;20373;-33
2023/03/24 05:58:00;;;;;;;4.65;3.88;;;;;;;15.50;56.72;96667.88;5040344;28;20484;-32
2023/03/24 06:00:27;;;;;;;4.85;3.80;;;;;;;15.63;56.62;96675.97;5044467;28;20480;-32
2023/03/24 06:02:54;;;;;;;6.13;4.20;;;;;;;15.83;56.19;96673.56;5035253;28;20076;-33
2023/03/24 06:05:19;;;;;;;5.70;4.55;;;;;;;15.94;55.85;96671.16;5042081;28;20017;-33
2023/03/24 06:07:45;;;;;;;7.60;4.60;;;;;;;15.65;56.55;96681.75;5037267;28;20032;-33
2023/03/24 06:10:13;;;;;;;6.45;4.70;;;;;;;15.75;56.19;96675.06;5045957;28;20033;-32
2023/03/24 06:12:39;;;;;;;7.88;5.13;;;;;;;15.63;56.70;96684.16;5044550;28;20021;-33
2023/03/24 06:15:06;;;;;;;8.60;5.65;;;;;;;15.58;56.83;96685.53;5042136;28;20022;-32
2023/03/24 06:17:33;;;;;;;8.50;5.95;;;;;;;15.84;56.19;96691.47;5041870;28;20120;-33
2023/03/24 06:20:04;;;;;;;9.02;6.32;;;;;;;15.70;56.52;96690.09;5037177;28;20508;-32
2023/03/24 06:22:33;;;;;;;7.80;5.40;;;;;;;15.75;56.19;96689.50;5039827;28;20120;-32
2023/03/24 06:24:59;;;;;;;9.88;6.03;;;;;;;15.72;56.51;96692.38;5041673;28;20023;-34
2023/03/24 06:27:29;;;;;;;8.55;6.22;;;;;;;15.80;56.33;96690.88;5041966;28;20021;-32
2023/03/24 06:29:58;;;;;;;8.48;6.72;;;;;;;15.80;56.58;96697.13;5041658;28;20022;-32
2023/03/24 06:32:25;;;;;;;9.50;6.57;;;;;;;15.71;56.63;96704.53;5042159;28;20523;-33
2023/03/24 06:34:50;;;;;;;8.80;6.43;;;;;;;15.99;55.92;96708.81;5041453;28;20048;-33
2023/03/24 06:37:16;;;;;;;8.73;6.43;;;;;;;15.73;56.32;96700.13;5042065;28;20929;-33
2023/03/24 06:39:42;;;;;;;8.90;6.43;;;;;;;15.70;56.79;96709.22;5041494;28;20017;-33
2023/03/24 06:42:07;;;;;;;11.73;6.60;;;;;;;15.93;56.14;96707.91;5042042;28;20032;-33
2023/03/24 06:44:32;;;;;;;10.98;7.32;;;;;;;15.83;56.51;96711.84;5045023;28;20032;-32
2023/03/24 06:46:58;;;;;;;11.27;6.95;;;;;;;15.72;56.86;96706.06;5045141;28;20021;-33
2023/03/24 06:49:25;;;;;;;8.57;6.68;;;;;;;15.92;56.46;96703.66;5036700;28;20049;-33
2023/03/24 06:51:50;;;;;;;8.30;6.85;;;;;;;15.86;56.73;96708.19;5046384;28;20053;-33
2023/03/24 06:54:16;;;;;;;9.50;7.38;;;;;;;15.82;56.53;96708.34;5043745;28;20052;-33
2023/03/24 06:56:42;;;;;;;12.25;7.63;;;;;;;15.90;56.49;96711.56;5041203;28;20029;-33
2023/03/24 06:59:07;;;;;;;12.23;7.85;;;;;;;15.86;56.90;96715.66;5041296;28;20123;-32
2023/03/24 07:01:34;;;;;;;10.38;7.45;;;;;;;15.84;56.91;96713.38;5042027;28;20037;-32
2023/03/24 07:04:00;;;;;;;10.00;7.57;;;;;;;15.91;56.94;96717.78;5044819;28;20032;-33
2023/03/24 07:06:25;;;;;;;11.50;7.38;;;;;;;15.89;56.86;96715.50;5044228;28;20025;-33
2023/03/24 07:08:51;;;;;;;10.02;7.38;;;;;;;15.92;56.46;96722.06;5044213;28;20018;-33
2023/03/24 07:11:16;;;;;;;10.45;7.18;;;;;;;15.90;55.86;96729.94;5044663;28;20025;-33
2023/03/24 07:13:43;;;;;;;10.15;7.10;;;;;;;15.95;55.65;96723.88;5043333;28;20410;-33
2023/03/24 07:16:09;;;;;;;10.43;6.72;;;;;;;15.92;56.20;96731.00;5044795;28;20025;-32
2023/03/24 07:18:34;;;;;;;10.73;7.30;;;;;;;15.85;56.48;96736.75;5037568;28;20107;-33
2023/03/24 07:21:00;;;;;;;11.93;6.75;;;;;;;15.96;56.38;96737.09;5035698;28;20029;-32
2023/03/24 07:23:26;;;;;;;11.02;7.47;;;;;;;15.72;56.86;96736.13;5046308;28;20442;-33
2023/03/24 07:25:52;;;;;;;13.50;8.35;;;;;;;15.88;56.47;96727.66;5047903;28;20544;-33
2023/03/24 07:28:20;;;;;;;10.55;7.45;;;;;;;15.91;56.58;96726.75;5034249;28;20053;-32
2023/03/24 07:30:45;;;;;;;13.00;7.78;;;;;;;15.78;56.99;96734.34;5032608;28;20357;-33
2023/03/24 07:33:11;;;;;;;12.95;8.55;;;;;;;16.01;56.63;96739.22;5035996;28;20051;-33
2023/03/24 07:35:37;;;;;;;12.43;7.40;;;;;;;15.92;56.93;96741.19;5044043;28;20468;-33
2023/03/24 07:38:03;;;;;;;11.50;7.65;;;;;;;15.90;56.88;96741.66;5042394;28;20405;-32
2023/03/24 07:40:29;;;;;;;12.43;8.15;;;;;;;15.91;57.04;96745.91;5044181;28;20016;-32
2023/03/24 07:43:00;;;;;;;12.35;7.88;;;;;;;15.88;57.08;96740.56;5043571;28;20028;-33
2023/03/24 07:45:27;;;;;;;11.27;7.95;;;;;;;15.91;57.44;96750.63;5043569;28;20045;-33
2023/03/24 07:47:53;;;;;;;12.48;7.75;;;;;;;15.81;57.88;96749.84;5043673;28;20032;-34
2023/03/24 07:50:18;;;;;;;12.07;7.05;;;;;;;16.03;57.45;96750.47;5041671;28;20051;-32
2023/03/24 07:52:47;;;;;;;12.75;7.57;;;;;;;16.08;57.26;96751.84;5040685;28;20018;-33
2023/03/24 07:55:14;;;;;;;13.90;7.43;;;;;;;15.82;58.32;96749.38;5040450;28;20033;-33
2023/03/24 07:57:40;;;;;;;12.40;6.93;;;;;;;15.90;58.13;96751.81;5041138;28;20028;-34
2023/03/24 08:00:16;;;;;;;12.77;7.13;;;;;;;15.98;57.87;96756.53;5040552;28;20025;-32
2023/03/24 08:02:44;;;;;;;11.57;6.88;;;;;;;16.07;57.94;96764.75;5035469;28;20025;-33
2023/03/24 08:05:12;;;;;;;10.43;6.93;;;;;;;16.00;57.98;96753.34;5038301;28;20021;-33
2023/03/24 08:07:41;;;;;;;10.80;7.05;;;;;;;16.00;58.33;96756.84;5047435;28;20021;-34
2023/03/24 08:10:12;;;;;;;10.45;6.82;;;;;;;16.05;58.39;96756.25;5040041;28;20023;-33
2023/03/24 08:12:38;;;;;;;8.15;6.15;;;;;;;16.06;58.27;96757.03;5033685;28;20029;-33
2023/03/24 08:15:06;;;;;;;9.82;6.15;;;;;;;16.06;58.25;96757.03;5043515;28;20144;-33
2023/03/24 08:17:32;;;;;;;9.70;5.60;;;;;;;16.14;58.05;96753.53;5043510;28;20112;-33
2023/03/24 08:19:58;;;;;;;9.57;5.93;;;;;;;16.05;58.50;96767.22;5040727;28;20072;-33
2023/03/24 08:22:23;;;;;;;11.35;6.15;;;;;;;16.12;58.41;96761.44;5033581;28;20057;-33
2023/03/24 08:24:48;;;;;;;8.70;5.85;;;;;;;16.06;58.46;96763.25;5040351;28;20029;-33
2023/03/24 08:27:15;;;;;;;6.47;5.13;;;;;;;16.10;58.36;96754.88;5043782;28;20096;-33
2023/03/24 08:29:41;;;;;;;6.70;5.38;;;;;;;16.16;58.42;96767.53;5043105;28;20056;-33
2023/03/24 08:32:07;;;;;;;10.30;6.43;;;;;;;16.11;58.28;96762.63;5042520;28;20095;-33
2023/03/24 08:34:32;;;;;;;8.10;5.80;;;;;;;16.16;58.59;96761.28;5038965;28;20022;-33
2023/03/24 08:36:57;;;;;;;8.75;5.93;;;;;;;16.35;58.09;96762.03;5040106;28;20464;-32
2023/03/24 08:39:23;;;;;;;9.65;5.50;;;;;;;16.18;58.52;96758.88;5035763;28;20017;-33
2023/03/24 08:41:49;;;;;;;9.38;5.18;;;;;;;16.31;58.29;96766.94;5045545;28;20024;-33
2023/03/24 08:44:15;;;;;;;6.47;5.15;;;;;;;16.26;58.45;96756.56;5048274;28;20025;-33
2023/03/24 08:46:41;;;;;;;8.57;4.60;;;;;;;16.33;57.95;96753.53;5037044;28;20104;-33
2023/03/24 08:49:06;;;;;;;8.05;4.80;;;;;;;16.26;57.96;96756.56;5043182;28;20465;-32
2023/03/24 08:51:32;;;;;;;7.50;4.65;;;;;;;16.22;58.44;96750.47;5035301;28;20029;-32
2023/03/24 08:53:57;;;;;;;5.65;4.20;;;;;;;16.31;58.03;96755.97;5043659;28;20015;-33
2023/03/24 08:56:23;;;;;;;6.85;4.40;;;;;;;16.15;58.45;96755.06;5044859;28;20028;-33
2023/03/24 08:58:50;;;;;;;5.55;4.35;;;;;;;16.27;58.30;96745.19;5037524;28;20025;-33
2023/03/24 09:01:17;;;;;;;7.55;4.93;;;;;;;16.30;57.92;96760.69;5043820;28;20030;-33
2023/03/24 09:03:43;;;;;;;8.15;5.13;;;;;;;16.43;57.77;96753.09;5043773;28;20533;-33
2023/03/24 09:06:10;;;;;;;7.10;5.30;;;;;;;16.37;57.81;96751.41;5043714;28;20052;-32
2023/03/24 09:08:35;;;;;;;8.00;4.97;;;;;;;16.41;58.07;96749.28;5043328;28;20029;-33
2023/03/24 09:11:01;;;;;;;7.47;4.80;;;;;;;16.27;58.72;96755.34;5043329;28;20033;-32
2023/03/24 09:13:26;;;;;;;8.18;5.65;;;;;;;16.45;57.95;96758.84;5042622;28;20021;-33
2023/03/24 09:15:57;;;;;;;7.38;5.05;;;;;;;16.41;58.15;96758.25;5043619;28;20029;-33
2023/03/24 09:18:22;;;;;;;7.45;5.07;;;;;;;16.46;57.97;96756.88;5035441;28;20032;-33
2023/03/24 09:20:49;;;;;;;9.07;5.57;;;;;;;16.39;57.99;96759.91;5050943;28;20021;-33
2023/03/24 09:23:15;;;;;;;10.13;5.85;;;;;;;16.47;58.20;96769.34;5043180;28;20039;-33
2023/03/24 09:25:41;;;;;;;10.88;6.22;;;;;;;16.48;58.30;96771.63;5050446;28;20021;-33
2023/03/24 09:28:07;;;;;;;8.98;5.57;;;;;;;16.49;58.05;96775.13;5037792;28;20021;-33
2023/03/24 09:30:33;;;;;;;6.43;5.28;;;;;;;16.52;57.95;96779.69;5040553;28;20030;-33
2023/03/24 09:32:59;;;;;;;9.00;5.65;;;;;;;16.56;57.89;96777.56;5043701;28;20018;-33
2023/03/24 09:35:26;;;;;;;9.77;5.78;;;;;;;16.57;57.81;96775.59;5046197;28;20087;-33
2023/03/24 09:37:52;;;;;;;9.88;7.28;;;;;;;16.44;58.39;96770.28;5039198;28;20030;-33
2023/03/24 09:40:27;;;;;;;8.30;6.28;;;;;;;16.52;58.08;96776.97;5042756;28;20031;-32
2023/03/24 09:43:06;;;;;;;10.60;6.85;;;;;;;16.48;58.21;96770.88;5043162;28;20121;-33
2023/03/24 09:45:40;;;;;;;11.18;6.57;;;;;;;16.60;57.89;96782.88;5046028;28;20019;-32
2023/03/24 09:48:14;;;;;;;9.95;7.03;;;;;;;16.63;57.34;96787.47;5045598;28;20482;-33
2023/03/24 09:51:12;;;;;;;10.88;6.13;;;;;;;16.58;57.47;96797.03;5042643;28;20028;-33
2023/03/24 09:53:56;;;;;;;7.70;5.57;;;;;;;16.66;57.25;96795.53;5045176;28;20436;-33
2023/03/24 09:56:22;;;;;;;8.35;5.70;;;;;;;16.43;58.02;96791.41;5042791;28;20044;-34
2023/03/24 09:58:59;;;;;;;6.63;4.68;;;;;;;16.73;57.35;96805.41;5045801;28;20017;-32
2023/03/24 10:01:25;;;;;;;6.60;4.43;;;;;;;16.71;57.13;96805.88;5045644;28;20048;-34
2023/03/24 10:03:55;;;;;;;7.07;4.55;;;;;;;16.71;56.90;96814.09;5042637;28;20079;-33
2023/03/24 10:06:38;;;;;;;7.80;4.90;;;;;;;16.82;56.42;96805.41;5041590;28;20470;-33
2023/03/24 10:09:04;;;;;;;7.13;5.05;;;;;;;16.83;57.55;96821.38;5042482;28;20033;-33
2023/03/24 10:11:39;;;;;;;8.55;4.78;;;;;;;16.74;57.12;96821.41;5042780;28;20499;-32
2023/03/24 10:14:26;;;;;;;6.57;4.03;;;;;;;16.94;56.82;96818.16;5039100;28;20027;-33
2023/03/24 10:17:19;;;;;;;5.78;4.22;;;;;;;16.85;56.67;96832.66;5044183;28;20021;-33
2023/03/24 10:19:59;;;;;;;7.78;4.13;;;;;;;16.92;56.72;96825.34;5043625;28;20047;-32
2023/03/24 10:22:36;;;;;;;7.85;4.20;;;;;;;17.01;56.58;96828.06;5042538;28;20060;-33
2023/03/24 10:25:26;;;;;;;5.95;4.00;;;;;;;17.01;55.90;96817.09;5044049;28;20039;-33
2023/03/24 10:28:03;;;;;;;9.10;4.43;;;;;;;16.95;56.03;96813.44;5037446;28;20021;-33
2023/03/24 10:30:39;;;;;;;6.70;4.45;;;;;;;17.13;55.34;96814.19;5040517;28;20021;-33
2023/03/24 10:33:05;;;;;;;3.75;3.33;;;;;;;17.17;55.01;96820.28;5041987;28;20021;-33
2023/03/24 10:35:38;;;;;;;4.25;3.53;;;;;;;17.13;55.37;96816.16;5046284;28;20500;-32
2023/03/24 10:38:14;;;;;;;5.82;3.22;;;;;;;17.26;54.89;96816.75;5043920;28;20025;-33
2023/03/24 10:40:40;;;;;;;7.40;4.68;;;;;;;17.22;55.07;96805.94;5038679;28;20381;-32
2023/03/24 10:43:06;;;;;;;8.30;3.92;;;;;;;17.49;54.44;96809.81;5036970;28;20465;-32
2023/03/24 10:45:33;;;;;;;5.47;3.65;;;;;;;17.31;55.44;96812.63;5041888;28;20045;-32
2023/03/24 10:48:01;;;;;;;6.03;3.78;;;;;;;17.48;54.64;96802.81;5046158;28;20106;-33
2023/03/24 10:50:30;;;;;;;5.57;3.17;;;;;;;17.20;55.42;96791.94;5036648;28;20122;-32
2023/03/24 10:52:56;;;;;;;5.15;3.05;;;;;;;17.24;55.30;96786.31;5045912;28;20108;-32
2023/03/24 10:55:37;;;;;;;5.68;3.72;;;;;;;17.36;55.13;96785.34;5041339;28;20160;-32
2023/03/24 10:58:25;;;;;;;5.93;3.10;;;;;;;17.38;55.07;96785.66;5044763;28;20033;-32
2023/03/24 11:00:53;;;;;;;5.65;3.13;;;;;;;17.47;54.71;96776.63;5041598;28;20030;-32
2023/03/24 11:03:27;;;;;;;4.88;3.13;;;;;;;17.40;55.27;96774.97;5033936;28;20033;-32
2023/03/24 11:06:04;;;;;;;4.20;3.05;;;;;;;17.58;54.74;96782.34;5041796;28;20021;-32
2023/03/24 11:08:39;;;;;;;6.32;3.40;;;;;;;17.52;55.05;96773.25;5041628;28;20380;-32
2023/03/24 11:11:22;;;;;;;6.07;3.63;;;;;;;17.50;54.99;96781.19;5041693;28;20032;-32
2023/03/24 11:13:57;;;;;;;6.05;3.55;;;;;;;17.48;55.29;96778.91;5042658;28;20036;-32
2023/03/24 11:16:38;;;;;;;6.38;3.60;;;;;;;17.51;55.10;96772.50;5038385;28;20100;-32
2023/03/24 11:19:16;;;;;;;4.43;2.90;;;;;;;17.70;54.26;96762.22;5040673;28;20030;-32
2023/03/24 11:21:42;;;;;;;6.03;3.53;;;;;;;17.54;54.74;96760.59;5040782;28;20362;-32
2023/03/24 11:24:18;;;;;;;4.68;3.33;;;;;;;17.51;55.40;96758.78;5041058;28;20040;-32
2023/03/24 11:26:57;;;;;;;4.88;3.15;;;;;;;17.64;54.98;96757.84;5040678;28;20033;-32
2023/03/24 11:29:24;;;;;;;6.88;3.65;;;;;;;17.38;55.87;96754.72;5040824;28;20108;-32
2023/03/24 11:31:55;;;;;;;6.38;3.83;;;;;;;17.46;55.51;96742.94;5040828;28;20024;-33
2023/03/24 11:34:33;;;;;;;6.65;4.82;;;;;;;17.56;55.15;96741.69;5044112;28;20591;-32
2023/03/24 11:37:02;;;;;;;6.80;4.25;;;;;;;17.45;55.21;96733.22;5043430;28;20032;-32
2023/03/24 11:39:33;;;;;;;6.32;4.13;;;;;;;17.62;55.02;96727.34;5036905;28;20465;-32
2023/03/24 11:42:15;;;;;;;5.85;3.90;;;;;;;17.57;54.99;96739.69;5044260;28;20029;-32
2023/03/24 11:44:48;;;;;;;5.13;3.33;;;;;;;17.56;54.80;96735.44;5038202;28;20020;-32
2023/03/24 11:47:35;;;;;;;7.05;4.20;;;;;;;17.49;55.15;96725.59;5042116;28;20029;-33
2023/03/24 11:50:13;;;;;;;7.53;4.47;;;;;;;17.52;55.08;96734.88;5044323;28;20122;-33
2023/03/24 11:52:50;;;;;;;10.20;4.97;;;;;;;17.60;54.90;96739.53;5041072;28;20473;-32